createdAt,value
2023-01-25T00:01:20.949Z,14.17
2023-01-25T00:03:50.732Z,14.07
2023-01-25T00:06:23.448Z,13.77
2023-01-25T00:08:53.545Z,12.23
2023-01-25T00:11:23.417Z,12.90
2023-01-25T00:13:56.164Z,12.70
2023-01-25T00:16:26.889Z,14.37
2023-01-25T00:18:56.665Z,12.93
2023-01-25T00:21:30.299Z,14.43
2023-01-25T00:24:00.185Z,15.00
2023-01-25T00:26:30.181Z,14.43
2023-01-25T00:29:00.330Z,14.13
2023-01-25T00:31:40.227Z,13.43
2023-01-25T00:34:30.180Z,13.93
2023-01-25T00:37:05.935Z,14.57
2023-01-25T00:39:35.793Z,14.10
2023-01-25T00:42:05.781Z,13.63
2023-01-25T00:44:35.643Z,12.60
2023-01-25T00:47:05.507Z,13.53
2023-01-25T00:49:35.916Z,13.53
2023-01-25T00:52:08.692Z,12.57
2023-01-25T00:54:38.548Z,12.47
2023-01-25T00:57:08.563Z,10.93
2023-01-25T00:59:38.778Z,12.00
2023-01-25T01:02:08.660Z,12.07
2023-01-25T01:04:38.541Z,12.97
2023-01-25T01:07:11.126Z,11.93
2023-01-25T01:09:41.195Z,11.43
2023-01-25T01:12:10.999Z,11.57
2023-01-25T01:14:41.165Z,12.17
2023-01-25T01:17:11.236Z,11.63
2023-01-25T01:19:41.255Z,12.60
2023-01-25T01:22:13.776Z,12.23
2023-01-25T01:24:43.650Z,12.93
2023-01-25T01:27:13.563Z,12.23
2023-01-25T01:29:43.315Z,11.67
2023-01-25T01:32:13.343Z,10.17
2023-01-25T01:34:43.871Z,11.93
2023-01-25T01:37:16.197Z,11.00
2023-01-25T01:39:46.099Z,12.80
2023-01-25T01:42:16.230Z,11.40
2023-01-25T01:44:51.443Z,12.33
2023-01-25T01:47:25.496Z,11.70
2023-01-25T01:50:00.403Z,12.23
2023-01-25T01:52:36.673Z,11.87
2023-01-25T01:55:11.950Z,12.30
2023-01-25T01:57:46.166Z,11.87
2023-01-25T02:00:19.416Z,11.17
2023-01-25T02:02:50.866Z,10.37
2023-01-25T02:05:25.600Z,11.93
2023-01-25T02:08:01.954Z,11.80
2023-01-25T02:10:33.385Z,10.50
2023-01-25T02:13:03.444Z,11.80
2023-01-25T02:15:45.295Z,10.23
2023-01-25T02:18:16.268Z,10.57
2023-01-25T02:20:48.227Z,10.20
2023-01-25T02:23:29.778Z,11.30
2023-01-25T02:26:06.004Z,11.70
2023-01-25T02:28:41.521Z,11.30
2023-01-25T02:31:11.578Z,11.07
2023-01-25T02:33:41.533Z,10.17
2023-01-25T02:36:23.251Z,11.83
2023-01-25T02:38:57.538Z,10.53
2023-01-25T02:41:37.104Z,11.77
2023-01-25T02:44:09.538Z,11.47
2023-01-25T02:46:41.114Z,11.73
2023-01-25T02:49:12.708Z,11.33
2023-01-25T02:51:44.855Z,10.43
2023-01-25T02:54:15.743Z,11.37
2023-01-25T02:56:48.283Z,10.63
2023-01-25T02:59:19.140Z,11.70
2023-01-25T03:01:49.159Z,11.93
2023-01-25T03:04:19.065Z,11.17
2023-01-25T03:06:48.794Z,11.00
2023-01-25T03:09:18.818Z,10.47
2023-01-25T03:11:51.173Z,11.07
2023-01-25T03:14:21.040Z,10.87
2023-01-25T03:16:50.850Z,12.27
2023-01-25T03:19:20.632Z,12.20
2023-01-25T03:21:50.368Z,10.70
2023-01-25T03:24:20.271Z,11.80
2023-01-25T03:27:05.147Z,12.17
2023-01-25T03:29:35.158Z,10.60
2023-01-25T03:32:05.453Z,11.57
2023-01-25T03:34:35.319Z,10.50
2023-01-25T03:37:05.283Z,11.57
2023-01-25T03:39:35.109Z,11.20
2023-01-25T03:42:08.370Z,11.73
2023-01-25T03:44:38.094Z,11.10
2023-01-25T03:47:08.033Z,10.87
2023-01-25T03:49:37.949Z,12.20
2023-01-25T03:52:08.368Z,13.27
2023-01-25T03:54:41.018Z,11.57
2023-01-25T03:57:13.429Z,11.73
2023-01-25T03:59:43.472Z,9.97
2023-01-25T04:02:14.818Z,11.03
2023-01-25T04:04:44.663Z,11.93
2023-01-25T04:07:14.792Z,12.27
2023-01-25T04:09:44.948Z,12.07
2023-01-25T04:12:17.404Z,11.60
2023-01-25T04:14:47.122Z,12.03
2023-01-25T04:17:17.000Z,11.07
2023-01-25T04:19:46.854Z,12.50
2023-01-25T04:22:16.980Z,11.67
2023-01-25T04:24:46.988Z,13.23
2023-01-25T04:27:19.451Z,12.60
2023-01-25T04:29:49.446Z,12.07
2023-01-25T04:32:19.425Z,11.83
2023-01-25T04:34:49.301Z,10.90
2023-01-25T04:37:19.028Z,12.00
2023-01-25T04:39:48.909Z,12.57
2023-01-25T04:42:21.372Z,12.30
2023-01-25T04:44:51.198Z,13.23
2023-01-25T04:47:21.095Z,13.20
2023-01-25T04:49:51.129Z,12.03
2023-01-25T04:52:20.899Z,12.57
2023-01-25T04:54:50.691Z,11.63
2023-01-25T04:57:23.154Z,11.73
2023-01-25T04:59:52.963Z,12.23
2023-01-25T05:02:23.068Z,13.30
2023-01-25T05:04:53.115Z,11.53
2023-01-25T05:07:22.957Z,12.03
2023-01-25T05:09:53.128Z,13.30
2023-01-25T05:12:25.578Z,12.00
2023-01-25T05:14:55.962Z,12.30
2023-01-25T05:17:25.807Z,13.57
2023-01-25T05:19:55.644Z,12.47
2023-01-25T05:22:25.778Z,12.33
2023-01-25T05:24:55.829Z,12.63
2023-01-25T05:27:26.121Z,13.40
2023-01-25T05:29:56.161Z,12.30
2023-01-25T05:32:26.885Z,13.07
2023-01-25T05:34:56.692Z,13.30
2023-01-25T05:37:26.424Z,14.23
2023-01-25T05:39:56.509Z,13.00
2023-01-25T05:42:28.913Z,13.17
2023-01-25T05:44:58.718Z,12.60
2023-01-25T05:47:28.887Z,12.80
2023-01-25T05:49:58.698Z,13.07
2023-01-25T05:52:28.583Z,12.67
2023-01-25T05:54:58.636Z,14.80
2023-01-25T05:57:31.753Z,14.73
2023-01-25T06:00:01.510Z,14.50
2023-01-25T06:02:32.161Z,15.07
2023-01-25T06:05:02.013Z,13.83
2023-01-25T06:07:32.723Z,13.17
2023-01-25T06:10:02.810Z,13.77
2023-01-25T06:12:36.292Z,13.70
2023-01-25T06:15:07.175Z,13.83
2023-01-25T06:17:37.283Z,13.17
2023-01-25T06:20:08.074Z,13.47
2023-01-25T06:22:37.978Z,13.70
2023-01-25T06:25:09.392Z,13.57
2023-01-25T06:27:42.620Z,14.30
2023-01-25T06:30:14.164Z,14.50
2023-01-25T06:32:44.057Z,14.10
2023-01-25T06:35:13.816Z,14.17
2023-01-25T06:37:43.571Z,14.93
2023-01-25T06:40:15.008Z,15.50
2023-01-25T06:42:47.426Z,14.43
2023-01-25T06:45:17.772Z,14.97
2023-01-25T06:47:47.552Z,14.07
2023-01-25T06:50:18.241Z,14.73
2023-01-25T06:52:54.848Z,14.30
2023-01-25T06:55:24.881Z,15.10
2023-01-25T06:57:57.336Z,10.77
2023-01-25T07:00:27.364Z,15.33
2023-01-25T07:02:57.460Z,16.23
2023-01-25T07:05:27.281Z,16.13
2023-01-25T07:07:57.266Z,16.03
2023-01-25T07:10:26.964Z,16.00
2023-01-25T07:12:59.599Z,15.57
2023-01-25T07:15:29.375Z,17.57
2023-01-25T07:18:05.600Z,17.43
2023-01-25T07:20:42.369Z,17.47
2023-01-25T07:23:12.231Z,18.40
2023-01-25T07:25:47.021Z,16.23
2023-01-25T07:28:20.529Z,18.00
2023-01-25T07:30:50.449Z,15.17
2023-01-25T07:33:20.613Z,18.13
2023-01-25T07:35:51.124Z,17.07
2023-01-25T07:38:20.946Z,18.57
2023-01-25T07:40:55.320Z,17.13
2023-01-25T07:43:28.241Z,16.90
2023-01-25T07:46:03.905Z,18.57
2023-01-25T07:48:34.022Z,18.40
2023-01-25T07:51:23.061Z,17.83
2023-01-25T07:53:54.412Z,19.10
2023-01-25T07:56:25.385Z,19.43
2023-01-25T07:58:58.803Z,18.00
2023-01-25T08:01:31.253Z,19.17
2023-01-25T08:04:01.260Z,18.87
2023-01-25T08:06:36.101Z,20.37
2023-01-25T08:09:09.920Z,21.67
2023-01-25T08:11:42.675Z,21.83
2023-01-25T08:14:15.465Z,22.93
2023-01-25T08:16:45.267Z,22.90
2023-01-25T08:19:16.072Z,23.23
2023-01-25T08:21:46.087Z,22.33
2023-01-25T08:24:17.308Z,23.53
2023-01-25T08:26:48.109Z,23.73
2023-01-25T08:29:20.686Z,23.17
2023-01-25T08:31:50.587Z,24.43
2023-01-25T08:34:20.520Z,23.90
2023-01-25T08:39:20.656Z,22.83
2023-01-25T08:41:50.584Z,22.47
2023-01-25T08:44:28.807Z,22.87
2023-01-25T08:46:58.782Z,22.53
2023-01-25T08:49:28.791Z,23.70
2023-01-25T08:51:58.654Z,23.93
2023-01-25T08:54:28.435Z,23.33
2023-01-25T08:56:58.340Z,24.40
2023-01-25T08:59:30.977Z,24.83
2023-01-25T09:02:00.801Z,25.20
2023-01-25T09:04:30.888Z,25.67
2023-01-25T09:07:00.830Z,26.70
2023-01-25T09:09:30.800Z,26.47
2023-01-25T09:12:00.673Z,26.37
2023-01-25T09:14:33.464Z,24.87
2023-01-25T09:17:03.325Z,25.73
2023-01-25T09:19:33.262Z,24.50
2023-01-25T09:22:03.814Z,25.83
2023-01-25T09:24:36.897Z,25.80
2023-01-25T09:27:07.176Z,25.77
2023-01-25T09:29:43.708Z,25.33
2023-01-25T09:32:16.226Z,24.47
2023-01-25T09:34:46.090Z,24.33
2023-01-25T09:37:16.111Z,25.93
2023-01-25T09:39:46.302Z,26.37
2023-01-25T09:42:49.698Z,24.03
2023-01-25T09:45:32.279Z,26.83
2023-01-25T09:48:12.450Z,25.43
2023-01-25T09:50:53.033Z,25.53
2023-01-25T09:53:27.209Z,26.27
2023-01-25T09:56:00.385Z,24.03
2023-01-25T09:58:36.518Z,24.63
2023-01-25T10:01:32.838Z,24.90
2023-01-25T10:04:14.906Z,20.57
2023-01-25T10:06:55.242Z,22.30
2023-01-25T10:09:37.000Z,26.23
2023-01-25T10:12:14.285Z,24.83
2023-01-25T10:14:44.253Z,23.17
2023-01-25T10:17:27.108Z,25.70
2023-01-25T10:20:12.665Z,28.30
2023-01-25T10:22:50.100Z,23.00
2023-01-25T10:25:31.714Z,17.33
2023-01-25T10:28:29.858Z,24.70
2023-01-25T10:31:03.969Z,25.17
2023-01-25T10:33:41.970Z,25.17
2023-01-25T10:36:17.643Z,26.67
2023-01-25T10:38:49.712Z,26.60
2023-01-25T10:41:27.066Z,25.27
2023-01-25T10:44:21.872Z,26.10
2023-01-25T10:46:56.936Z,24.93
2023-01-25T10:49:37.440Z,26.93
2023-01-25T10:52:18.891Z,24.23
2023-01-25T10:54:50.374Z,25.53
2023-01-25T10:57:22.514Z,24.47
2023-01-25T10:59:55.434Z,24.67
2023-01-25T11:02:42.452Z,23.80
2023-01-25T11:05:31.572Z,25.37
2023-01-25T11:08:02.731Z,25.07
2023-01-25T11:10:36.358Z,24.23
2023-01-25T11:13:28.482Z,24.27
2023-01-25T11:16:16.897Z,26.73
2023-01-25T11:18:53.893Z,22.80
2023-01-25T11:21:28.534Z,25.67
2023-01-25T11:24:06.777Z,22.80
2023-01-25T11:26:37.814Z,26.13
2023-01-25T11:29:16.452Z,24.87
2023-01-25T11:31:49.285Z,26.27
2023-01-25T11:34:21.054Z,24.23
2023-01-25T11:37:25.585Z,25.63
2023-01-25T11:40:06.898Z,25.93
2023-01-25T11:42:46.816Z,26.10
2023-01-25T11:45:35.949Z,24.07
2023-01-25T11:48:27.178Z,21.13
2023-01-25T11:51:06.914Z,24.60
2023-01-25T11:54:18.708Z,26.23
2023-01-25T11:57:00.657Z,24.43
2023-01-25T11:59:53.372Z,25.33
2023-01-25T12:02:48.517Z,28.23
2023-01-25T12:05:29.219Z,28.67
2023-01-25T12:08:19.434Z,28.30
2023-01-25T12:10:59.085Z,26.67
2023-01-25T12:13:46.785Z,27.50
2023-01-25T12:16:36.405Z,26.93
2023-01-25T12:19:27.196Z,28.00
2023-01-25T12:22:11.786Z,27.17
2023-01-25T12:24:53.194Z,28.80
2023-01-25T12:27:34.329Z,28.87
2023-01-25T12:30:16.784Z,26.10
2023-01-25T12:32:57.281Z,24.50
2023-01-25T12:35:36.142Z,25.50
2023-01-25T12:38:07.826Z,28.60
2023-01-25T12:40:49.713Z,24.27
2023-01-25T12:43:27.191Z,23.20
2023-01-25T12:46:02.460Z,23.83
2023-01-25T12:48:37.482Z,21.70
2023-01-25T12:51:08.247Z,24.07
2023-01-25T12:53:42.470Z,25.10
2023-01-25T12:56:20.421Z,24.30
2023-01-25T12:58:57.875Z,21.37
2023-01-25T13:01:36.531Z,23.57
2023-01-25T13:04:28.783Z,24.77
2023-01-25T13:07:06.602Z,23.03
2023-01-25T13:09:42.625Z,23.70
2023-01-25T13:12:14.963Z,23.13
2023-01-25T13:14:45.267Z,22.27
2023-01-25T13:17:25.533Z,23.03
2023-01-25T13:19:56.259Z,23.93
2023-01-25T13:22:59.015Z,23.23
2023-01-25T13:25:30.541Z,23.00
2023-01-25T13:28:43.249Z,23.13
2023-01-25T13:31:13.467Z,22.70
2023-01-25T13:33:46.149Z,24.73
2023-01-25T13:36:41.578Z,22.93
2023-01-25T13:39:41.290Z,22.60
2023-01-25T13:42:23.795Z,21.63
2023-01-25T13:44:56.939Z,21.97
2023-01-25T13:47:29.008Z,22.00
2023-01-25T13:50:12.005Z,21.57
2023-01-25T13:52:42.180Z,22.30
2023-01-25T13:55:20.991Z,22.20
2023-01-25T13:57:51.642Z,20.57
2023-01-25T14:00:22.793Z,22.90
2023-01-25T14:02:58.021Z,21.63
2023-01-25T14:05:33.330Z,23.50
2023-01-25T14:08:03.402Z,23.70
2023-01-25T14:10:33.333Z,24.30
2023-01-25T14:13:03.963Z,23.97
2023-01-25T14:15:36.739Z,24.67
2023-01-25T14:18:18.998Z,23.63
2023-01-25T14:20:53.750Z,22.93
2023-01-25T14:23:28.255Z,23.30
2023-01-25T14:26:02.287Z,23.20
2023-01-25T14:28:33.510Z,23.57
2023-01-25T14:31:06.200Z,26.77
2023-01-25T14:33:44.576Z,24.23
2023-01-25T14:36:25.136Z,26.90
2023-01-25T14:38:55.998Z,25.97
2023-01-25T14:41:31.186Z,27.13
2023-01-25T14:44:05.192Z,25.23
2023-01-25T14:46:36.708Z,27.27
2023-01-25T14:49:11.232Z,25.27
2023-01-25T14:51:48.404Z,26.97
2023-01-25T14:54:22.582Z,25.27
2023-01-25T14:56:55.778Z,23.07
2023-01-25T14:59:34.063Z,24.20
2023-01-25T15:02:07.283Z,24.47
2023-01-25T15:04:37.395Z,26.03
2023-01-25T15:07:17.958Z,24.37
2023-01-25T15:10:05.052Z,23.77
2023-01-25T15:12:35.750Z,25.03
2023-01-25T15:15:06.133Z,24.23
2023-01-25T15:17:40.766Z,25.50
2023-01-25T15:20:30.450Z,25.10
2023-01-25T15:23:07.148Z,25.37
2023-01-25T15:25:37.125Z,23.90
2023-01-25T15:28:06.978Z,23.53
2023-01-25T15:30:36.853Z,24.47
2023-01-25T15:33:07.010Z,25.90
2023-01-25T15:35:37.652Z,25.83
2023-01-25T15:38:14.445Z,25.30
2023-01-25T15:40:44.818Z,22.03
2023-01-25T15:43:15.741Z,23.87
2023-01-25T15:45:47.398Z,24.97
2023-01-25T15:48:19.845Z,18.77
2023-01-25T15:50:50.104Z,22.47
2023-01-25T15:53:22.802Z,21.73
2023-01-25T15:55:56.860Z,23.67
2023-01-25T15:58:29.502Z,24.20
2023-01-25T16:01:00.520Z,22.80
2023-01-25T16:03:30.881Z,23.67
2023-01-25T16:06:02.325Z,23.97
2023-01-25T16:08:34.901Z,25.37
2023-01-25T16:11:04.798Z,23.13
2023-01-25T16:13:34.964Z,24.00
2023-01-25T16:16:04.894Z,21.73
2023-01-25T16:18:34.814Z,21.63
2023-01-25T16:21:04.590Z,22.30
2023-01-25T16:23:37.089Z,21.40
2023-01-25T16:26:07.793Z,22.07
2023-01-25T16:28:37.633Z,24.50
2023-01-25T16:31:07.545Z,22.53
2023-01-25T16:33:37.396Z,22.23
2023-01-25T16:36:17.240Z,23.10
2023-01-25T16:38:49.671Z,22.90
2023-01-25T16:41:19.924Z,19.77
2023-01-25T16:43:53.646Z,21.37
2023-01-25T16:46:26.340Z,20.17
2023-01-25T16:48:56.456Z,19.97
2023-01-25T16:51:28.332Z,19.00
2023-01-25T16:54:01.323Z,36.43
2023-01-25T16:56:33.538Z,21.67
2023-01-25T16:59:04.604Z,22.17
2023-01-25T17:01:34.962Z,18.57
2023-01-25T17:04:04.894Z,21.57
2023-01-25T17:06:36.731Z,19.73
2023-01-25T17:09:22.185Z,19.80
2023-01-25T17:11:53.099Z,20.77
2023-01-25T17:14:23.346Z,21.20
2023-01-25T17:16:54.042Z,21.73
2023-01-25T17:19:23.983Z,18.93
2023-01-25T17:21:53.889Z,18.23
2023-01-25T17:24:26.431Z,18.57
2023-01-25T17:26:59.737Z,18.77
2023-01-25T17:29:29.912Z,19.27
2023-01-25T17:32:00.497Z,19.20
2023-01-25T17:34:30.418Z,20.40
2023-01-25T17:37:00.514Z,19.07
2023-01-25T17:39:33.380Z,20.87
2023-01-25T17:42:03.181Z,20.63
2023-01-25T17:44:33.028Z,21.10
2023-01-25T17:47:02.940Z,21.43
2023-01-25T17:49:33.738Z,21.03
2023-01-25T17:52:04.804Z,20.47
2023-01-25T17:54:37.607Z,20.53
2023-01-25T17:57:07.436Z,22.33
2023-01-25T17:59:37.334Z,19.83
2023-01-25T18:02:07.529Z,21.50
2023-01-25T18:04:37.602Z,22.37
2023-01-25T18:07:07.433Z,21.33
2023-01-25T18:09:39.798Z,24.00
2023-01-25T18:12:10.141Z,23.17
2023-01-25T18:14:40.076Z,24.57
2023-01-25T18:17:09.971Z,26.50
2023-01-25T18:19:40.299Z,24.73
2023-01-25T18:22:10.107Z,24.63
2023-01-25T18:24:42.802Z,25.07
2023-01-25T18:27:21.745Z,25.53
2023-01-25T18:29:57.360Z,24.30
2023-01-25T18:32:27.201Z,24.37
2023-01-25T18:34:57.304Z,23.80
2023-01-25T18:37:33.479Z,25.03
2023-01-25T18:40:06.064Z,24.83
2023-01-25T18:42:35.812Z,21.70
2023-01-25T18:45:06.312Z,22.47
2023-01-25T18:47:36.765Z,24.93
2023-01-25T18:50:07.399Z,26.10
2023-01-25T18:52:38.081Z,25.50
2023-01-25T18:55:11.482Z,25.20
2023-01-25T18:57:41.787Z,23.60
2023-01-25T19:00:15.098Z,26.63
2023-01-25T19:02:45.068Z,24.47
2023-01-25T19:05:18.647Z,26.50
2023-01-25T19:07:48.356Z,25.60
2023-01-25T19:10:21.578Z,25.43
2023-01-25T19:12:51.427Z,23.57
2023-01-25T19:15:21.189Z,23.77
2023-01-25T19:17:50.909Z,22.87
2023-01-25T19:20:21.587Z,24.57
2023-01-25T19:22:51.470Z,21.73
2023-01-25T19:25:24.537Z,24.40
2023-01-25T19:27:54.721Z,22.70
2023-01-25T19:30:24.696Z,25.23
2023-01-25T19:32:54.414Z,23.23
2023-01-25T19:35:24.181Z,19.57
2023-01-25T19:37:54.059Z,23.17
2023-01-25T19:40:26.451Z,25.03
2023-01-25T19:42:56.346Z,24.47
2023-01-25T19:45:26.295Z,25.23
2023-01-25T19:47:56.492Z,25.00
2023-01-25T19:50:26.480Z,23.97
2023-01-25T19:52:58.036Z,25.93
2023-01-25T19:55:30.747Z,22.87
2023-01-25T19:58:00.477Z,25.13
2023-01-25T20:00:30.412Z,23.67
2023-01-25T20:03:14.821Z,25.37
2023-01-25T20:05:45.925Z,25.17
2023-01-25T20:08:15.727Z,27.20
2023-01-25T20:10:48.597Z,25.93
2023-01-25T20:13:18.381Z,26.50
2023-01-25T20:15:51.188Z,27.80
2023-01-25T20:18:21.710Z,28.13
2023-01-25T20:20:58.220Z,26.90
2023-01-25T20:23:28.321Z,28.33
2023-01-25T20:26:05.924Z,26.90
2023-01-25T20:28:37.405Z,27.07
2023-01-25T20:31:07.891Z,27.37
2023-01-25T20:33:38.015Z,28.03
2023-01-25T20:36:09.173Z,27.97
2023-01-25T20:38:39.630Z,29.67
2023-01-25T20:41:14.266Z,26.20
2023-01-25T20:43:49.237Z,28.47
2023-01-25T20:46:19.639Z,26.73
2023-01-25T20:48:49.744Z,26.50
2023-01-25T20:51:21.641Z,26.87
2023-01-25T20:53:54.592Z,28.17
2023-01-25T20:56:27.072Z,27.93
2023-01-25T20:58:57.451Z,29.00
2023-01-25T21:01:30.453Z,28.87
2023-01-25T21:04:01.034Z,28.73
2023-01-25T21:06:31.362Z,28.03
2023-01-25T21:09:01.270Z,27.80
2023-01-25T21:11:33.889Z,28.43
2023-01-25T21:14:03.930Z,28.17
2023-01-25T21:16:33.868Z,27.80
2023-01-25T21:19:08.464Z,28.13
2023-01-25T21:21:38.698Z,27.80
2023-01-25T21:24:09.859Z,29.07
2023-01-25T21:26:43.571Z,29.97
2023-01-25T21:29:13.418Z,29.00
2023-01-25T21:31:46.478Z,29.60
2023-01-25T21:34:16.293Z,27.63
2023-01-25T21:36:46.086Z,29.17
2023-01-25T21:39:16.048Z,26.73
2023-01-25T21:41:48.574Z,29.30
2023-01-25T21:44:30.942Z,27.13
2023-01-25T21:47:28.478Z,25.47
2023-01-25T21:50:02.852Z,24.57
2023-01-25T21:52:34.645Z,25.03
2023-01-25T21:55:05.748Z,26.37
2023-01-25T21:57:41.031Z,24.57
2023-01-25T22:00:12.628Z,25.60
2023-01-25T22:02:42.701Z,26.10
2023-01-25T22:05:12.908Z,26.40
2023-01-25T22:07:42.652Z,25.77
2023-01-25T22:10:13.977Z,26.53
2023-01-25T22:12:46.439Z,26.13
2023-01-25T22:15:16.435Z,25.23
2023-01-25T22:17:46.318Z,26.07
2023-01-25T22:20:16.219Z,28.00
2023-01-25T22:22:45.922Z,29.33
2023-01-25T22:25:15.664Z,27.87
2023-01-25T22:27:56.083Z,28.50
2023-01-25T22:30:26.020Z,26.27
2023-01-25T22:32:55.818Z,25.87
2023-01-25T22:35:25.660Z,26.90
2023-01-25T22:37:55.680Z,27.80
2023-01-25T22:40:25.450Z,26.87
2023-01-25T22:42:57.868Z,28.30
2023-01-25T22:45:27.708Z,27.97
2023-01-25T22:47:57.477Z,28.30
2023-01-25T22:50:27.217Z,29.70
2023-01-25T22:52:56.906Z,29.10
2023-01-25T22:55:26.789Z,28.97
2023-01-25T22:57:59.096Z,27.23
2023-01-25T23:00:29.151Z,26.60
2023-01-25T23:02:59.121Z,27.03
2023-01-25T23:05:29.955Z,26.93
2023-01-25T23:08:00.443Z,27.83
2023-01-25T23:10:30.248Z,27.20
2023-01-25T23:13:02.583Z,22.73
2023-01-25T23:15:32.655Z,27.60
2023-01-25T23:18:14.874Z,24.30
2023-01-25T23:20:44.939Z,27.00
2023-01-25T23:23:15.173Z,26.40
2023-01-25T23:25:44.945Z,27.60
2023-01-25T23:28:17.771Z,25.47
2023-01-25T23:30:47.631Z,24.97
2023-01-25T23:33:17.500Z,24.70
2023-01-25T23:35:47.292Z,26.33
2023-01-25T23:38:17.762Z,27.73
2023-01-25T23:40:47.635Z,21.33
2023-01-25T23:43:19.955Z,25.53
2023-01-25T23:45:49.693Z,24.70
2023-01-25T23:48:19.365Z,24.00
2023-01-25T23:50:49.089Z,26.60
2023-01-25T23:53:18.853Z,26.57
2023-01-25T23:55:55.098Z,24.57
2023-01-25T23:58:28.363Z,23.67
